createdAt,value
2022-08-14T00:02:01.442Z,5.57
2022-08-14T00:04:34.853Z,4.73
2022-08-14T00:07:11.193Z,5.13
2022-08-14T00:09:55.276Z,5.83
2022-08-14T00:12:34.012Z,4.97
2022-08-14T00:15:22.717Z,6.20
2022-08-14T00:17:53.000Z,6.17
2022-08-14T00:20:30.903Z,7.07
2022-08-14T00:23:12.228Z,5.33
2022-08-14T00:25:58.935Z,6.07
2022-08-14T00:28:32.883Z,5.30
2022-08-14T00:31:04.828Z,4.83
2022-08-14T00:33:50.902Z,5.20
2022-08-14T00:36:35.084Z,5.57
2022-08-14T00:39:12.485Z,6.57
2022-08-14T00:41:39.483Z,5.73
2022-08-14T00:44:09.901Z,5.73
2022-08-14T00:46:38.864Z,6.20
2022-08-14T00:49:11.647Z,6.40
2022-08-14T00:51:44.165Z,5.90
2022-08-14T00:54:21.339Z,5.43
2022-08-14T00:56:55.578Z,5.77
2022-08-14T00:59:25.858Z,5.60
2022-08-14T01:02:00.408Z,5.87
2022-08-14T01:04:51.912Z,5.37
2022-08-14T01:07:21.791Z,4.73
2022-08-14T01:10:05.022Z,5.60
2022-08-14T01:12:33.756Z,7.47
2022-08-14T01:15:09.437Z,6.10
2022-08-14T01:17:55.512Z,6.43
2022-08-14T01:20:41.281Z,7.83
2022-08-14T01:23:16.491Z,8.37
2022-08-14T01:25:51.357Z,11.17
2022-08-14T01:28:46.087Z,10.23
2022-08-14T01:31:16.969Z,7.83
2022-08-14T01:34:00.539Z,7.10
2022-08-14T01:36:38.949Z,7.10
2022-08-14T01:39:14.305Z,6.27
2022-08-14T01:41:48.307Z,5.47
2022-08-14T01:44:32.721Z,7.40
2022-08-14T01:47:12.128Z,6.77
2022-08-14T01:49:45.737Z,6.20
2022-08-14T01:52:33.959Z,7.87
2022-08-14T01:55:01.435Z,5.93
2022-08-14T01:57:33.996Z,6.83
2022-08-14T02:00:19.057Z,5.77
2022-08-14T02:02:46.760Z,5.10
2022-08-14T02:05:14.333Z,6.33
2022-08-14T02:07:55.395Z,8.50
2022-08-14T02:10:26.326Z,7.77
2022-08-14T02:12:57.041Z,8.97
2022-08-14T02:15:26.413Z,8.60
2022-08-14T02:17:53.641Z,9.47
2022-08-14T02:20:23.896Z,11.67
2022-08-14T02:22:54.640Z,9.67
2022-08-14T02:25:23.228Z,9.37
2022-08-14T02:28:24.818Z,7.53
2022-08-14T02:30:44.596Z,6.73
2022-08-14T02:33:12.372Z,8.03
2022-08-14T02:35:43.536Z,8.67
2022-08-14T02:38:11.572Z,8.77
2022-08-14T02:40:39.251Z,8.87
2022-08-14T02:43:08.665Z,7.63
2022-08-14T02:45:38.381Z,6.33
2022-08-14T02:49:03.243Z,8.20
2022-08-14T02:51:01.477Z,10.97
2022-08-14T02:53:31.107Z,12.27
2022-08-14T02:56:30.912Z,9.10
2022-08-14T02:58:52.855Z,7.70
2022-08-14T03:01:26.251Z,6.63
2022-08-14T03:03:59.272Z,8.73
2022-08-14T03:06:34.641Z,7.33
2022-08-14T03:09:14.669Z,6.70
2022-08-14T03:11:44.959Z,6.93
2022-08-14T03:14:15.515Z,6.17
2022-08-14T03:16:45.556Z,8.03
2022-08-14T03:19:19.675Z,7.00
2022-08-14T03:21:52.828Z,6.83
2022-08-14T03:24:23.294Z,8.00
2022-08-14T03:26:57.270Z,8.00
2022-08-14T03:29:29.495Z,9.07
2022-08-14T03:31:56.757Z,8.90
2022-08-14T03:34:47.742Z,8.80
2022-08-14T03:37:38.143Z,8.77
2022-08-14T03:40:00.458Z,9.83
2022-08-14T03:42:31.048Z,8.27
2022-08-14T03:45:26.134Z,8.00
2022-08-14T03:47:58.351Z,6.40
2022-08-14T03:50:30.802Z,7.07
2022-08-14T03:53:03.444Z,7.40
2022-08-14T03:55:31.477Z,6.43
2022-08-14T03:58:00.364Z,7.17
2022-08-14T04:00:43.794Z,7.37
2022-08-14T04:03:18.196Z,7.57
2022-08-14T04:05:50.771Z,6.33
2022-08-14T04:08:22.967Z,7.23
2022-08-14T04:10:58.508Z,8.63
2022-08-14T04:13:27.898Z,8.03
2022-08-14T04:16:04.737Z,8.10
2022-08-14T04:18:33.715Z,7.83
2022-08-14T04:21:01.414Z,7.57
2022-08-14T04:23:29.626Z,7.63
2022-08-14T04:26:08.604Z,8.37
2022-08-14T04:29:07.676Z,9.60
2022-08-14T04:32:58.577Z,8.23
2022-08-14T04:34:27.137Z,8.77
2022-08-14T04:37:22.365Z,9.37
2022-08-14T04:40:13.774Z,8.17
2022-08-14T04:43:01.233Z,6.50
2022-08-14T04:45:36.279Z,7.40
2022-08-14T04:48:39.879Z,8.43
2022-08-14T04:51:08.319Z,6.87
2022-08-14T04:53:42.765Z,7.80
2022-08-14T04:56:31.682Z,8.83
2022-08-14T04:59:10.423Z,10.47
2022-08-14T05:01:48.996Z,10.63
2022-08-14T05:04:21.641Z,10.93
2022-08-14T05:06:55.198Z,10.93
2022-08-14T05:09:29.072Z,10.83
2022-08-14T05:13:02.825Z,10.97
2022-08-14T05:14:53.321Z,11.83
2022-08-14T05:17:25.398Z,11.43
2022-08-14T05:21:57.842Z,11.00
2022-08-14T05:22:54.271Z,11.40
2022-08-14T05:25:23.011Z,11.53
2022-08-14T05:27:50.238Z,11.57
2022-08-14T05:30:22.616Z,11.87
2022-08-14T05:32:50.114Z,11.77
2022-08-14T05:35:19.329Z,11.13
2022-08-14T05:37:49.570Z,11.30
2022-08-14T05:40:16.628Z,10.83
2022-08-14T05:42:46.605Z,11.43
2022-08-14T05:45:20.068Z,12.37
2022-08-14T05:47:46.979Z,11.77
2022-08-14T05:50:19.281Z,12.50
2022-08-14T05:52:49.996Z,11.63
2022-08-14T05:55:22.753Z,12.23
2022-08-14T05:58:04.095Z,11.07
2022-08-14T06:00:38.629Z,11.80
2022-08-14T06:03:14.651Z,11.10
2022-08-14T06:05:44.644Z,11.77
2022-08-14T06:08:35.519Z,10.93
2022-08-14T06:11:08.017Z,11.23
2022-08-14T06:13:45.129Z,11.33
2022-08-14T06:16:17.661Z,11.87
2022-08-14T06:18:48.681Z,11.53
2022-08-14T06:21:23.439Z,10.17
2022-08-14T06:23:51.602Z,11.80
2022-08-14T06:26:22.155Z,11.03
2022-08-14T06:28:51.766Z,11.17
2022-08-14T06:31:23.082Z,11.13
2022-08-14T06:35:03.149Z,11.57
2022-08-14T06:36:39.432Z,11.97
2022-08-14T06:39:10.070Z,11.17
2022-08-14T06:41:59.484Z,10.33
2022-08-14T06:44:30.353Z,10.60
2022-08-14T06:46:59.696Z,9.67
2022-08-14T06:49:27.362Z,10.17
2022-08-14T06:51:57.447Z,9.73
2022-08-14T06:54:31.184Z,8.73
2022-08-14T06:56:58.983Z,10.27
2022-08-14T06:59:26.458Z,9.50
2022-08-14T07:02:13.627Z,9.33
2022-08-14T07:05:05.151Z,8.83
2022-08-14T07:07:39.192Z,8.67
2022-08-14T07:10:16.757Z,8.90
2022-08-14T07:13:02.055Z,8.77
2022-08-14T07:15:34.061Z,8.47
2022-08-14T07:18:09.392Z,8.23
2022-08-14T07:20:37.414Z,8.90
2022-08-14T07:23:10.898Z,8.80
2022-08-14T07:25:42.253Z,8.38
2022-08-14T07:28:22.422Z,8.35
2022-08-14T07:31:04.665Z,7.80
2022-08-14T07:33:42.017Z,8.02
2022-08-14T07:36:27.036Z,7.72
2022-08-14T07:39:03.051Z,6.97
2022-08-14T07:41:39.519Z,7.60
2022-08-14T07:44:29.060Z,8.95
2022-08-14T07:47:00.755Z,8.20
2022-08-14T07:49:28.698Z,8.00
2022-08-14T07:51:57.451Z,7.40
2022-08-14T07:54:30.325Z,7.70
2022-08-14T07:57:06.624Z,7.13
2022-08-14T07:59:49.001Z,6.95
2022-08-14T08:02:20.291Z,7.43
2022-08-14T08:04:59.180Z,8.00
2022-08-14T08:07:32.132Z,7.25
2022-08-14T08:11:01.407Z,7.35
2022-08-14T08:13:22.271Z,6.35
2022-08-14T08:15:59.587Z,6.95
2022-08-14T08:18:31.245Z,6.78
2022-08-14T08:21:00.496Z,6.15
2022-08-14T08:23:43.504Z,6.32
2022-08-14T08:26:28.808Z,7.25
2022-08-14T08:28:59.005Z,6.43
2022-08-14T08:31:32.601Z,6.68
2022-08-14T08:34:05.474Z,6.88
2022-08-14T08:36:46.644Z,6.93
2022-08-14T08:39:22.244Z,6.55
2022-08-14T08:41:53.547Z,6.75
2022-08-14T08:44:32.172Z,6.07
2022-08-14T08:47:08.219Z,5.80
2022-08-14T08:49:52.667Z,6.15
2022-08-14T08:52:31.720Z,6.20
2022-08-14T08:55:04.293Z,5.55
2022-08-14T08:57:39.948Z,6.03
2022-08-14T09:00:25.636Z,5.93
2022-08-14T09:03:20.609Z,5.82
2022-08-14T09:06:05.167Z,7.93
2022-08-14T09:08:55.380Z,5.55
2022-08-14T09:11:25.452Z,5.50
2022-08-14T09:13:54.517Z,5.70
2022-08-14T09:16:25.090Z,5.13
2022-08-14T09:18:56.071Z,5.97
2022-08-14T09:21:25.005Z,5.38
2022-08-14T09:24:28.221Z,5.00
2022-08-14T09:26:50.039Z,5.13
2022-08-14T09:29:23.136Z,4.93
2022-08-14T09:31:58.915Z,4.63
2022-08-14T09:35:27.796Z,4.88
2022-08-14T09:38:40.514Z,5.10
2022-08-14T09:42:21.586Z,5.00
2022-08-14T09:45:07.902Z,5.03
2022-08-14T09:47:54.877Z,4.97
2022-08-14T09:50:33.788Z,4.63
2022-08-14T09:53:18.487Z,4.82
2022-08-14T09:55:59.318Z,4.43
2022-08-14T09:58:47.391Z,4.68
2022-08-14T10:01:19.695Z,4.40
2022-08-14T10:04:00.494Z,4.55
2022-08-14T10:06:29.743Z,5.05
2022-08-14T10:09:11.978Z,4.82
2022-08-14T10:12:18.659Z,5.18
2022-08-14T10:14:53.390Z,3.88
2022-08-14T10:17:27.556Z,4.80
2022-08-14T10:20:00.812Z,4.40
2022-08-14T10:23:14.836Z,3.85
2022-08-14T10:25:22.542Z,4.47
2022-08-14T10:27:58.608Z,4.40
2022-08-14T10:30:36.900Z,4.10
2022-08-14T10:33:05.494Z,4.00
2022-08-14T10:35:48.163Z,4.20
2022-08-14T10:38:33.491Z,3.88
2022-08-14T10:41:18.816Z,4.85
2022-08-14T10:44:20.895Z,4.32
2022-08-14T10:47:41.003Z,4.10
2022-08-14T10:50:02.166Z,4.05
2022-08-14T10:52:34.651Z,3.60
2022-08-14T10:55:16.884Z,4.75
2022-08-14T10:57:56.887Z,4.32
2022-08-14T11:00:30.106Z,3.60
2022-08-14T11:03:19.793Z,3.80
2022-08-14T11:05:55.803Z,4.65
2022-08-14T11:08:35.496Z,4.00
2022-08-14T11:11:08.222Z,3.90
2022-08-14T11:13:38.783Z,4.35
2022-08-14T11:16:10.223Z,4.05
2022-08-14T11:18:40.389Z,3.90
2022-08-14T11:21:09.416Z,3.28
2022-08-14T11:23:47.129Z,4.18
2022-08-14T11:26:20.180Z,3.90
2022-08-14T11:28:50.246Z,3.20
2022-08-14T11:31:26.324Z,3.97
2022-08-14T11:34:06.193Z,3.80
2022-08-14T11:37:02.174Z,4.00
2022-08-14T11:39:37.564Z,3.40
2022-08-14T11:42:57.577Z,3.80
2022-08-14T11:45:17.184Z,3.30
2022-08-14T11:48:10.714Z,3.53
2022-08-14T11:50:37.765Z,3.40
2022-08-14T11:53:20.034Z,3.53
2022-08-14T11:55:54.343Z,4.10
2022-08-14T11:58:31.270Z,3.45
2022-08-14T12:01:09.574Z,3.50
2022-08-14T12:03:57.283Z,3.75
2022-08-14T12:06:39.322Z,3.15
2022-08-14T12:09:14.942Z,2.97
2022-08-14T12:11:46.868Z,3.33
2022-08-14T12:14:30.604Z,5.40
2022-08-14T12:17:13.319Z,3.30
2022-08-14T12:19:53.987Z,2.92
2022-08-14T12:22:40.082Z,3.20
2022-08-14T12:25:24.711Z,2.80
2022-08-14T12:28:03.546Z,2.72
2022-08-14T12:30:48.939Z,2.55
2022-08-14T12:33:33.144Z,2.67
2022-08-14T12:36:07.982Z,2.50
2022-08-14T12:38:45.710Z,2.42
2022-08-14T12:41:22.126Z,2.65
2022-08-14T12:44:01.623Z,2.40
2022-08-14T12:46:35.894Z,2.67
2022-08-14T12:49:28.625Z,2.78
2022-08-14T12:51:59.756Z,2.35
2022-08-14T12:54:32.714Z,2.95
2022-08-14T12:57:21.692Z,2.20
2022-08-14T12:59:50.542Z,2.30
2022-08-14T13:02:42.437Z,2.30
2022-08-14T13:05:15.504Z,2.72
2022-08-14T13:07:45.787Z,2.85
2022-08-14T13:10:47.266Z,2.55
2022-08-14T13:13:15.700Z,2.97
2022-08-14T13:15:57.278Z,2.88
2022-08-14T13:18:46.945Z,3.05
2022-08-14T13:21:14.824Z,3.00
2022-08-14T13:23:47.488Z,3.75
2022-08-14T13:26:19.242Z,3.30
2022-08-14T13:29:02.410Z,2.42
2022-08-14T13:31:34.148Z,2.33
2022-08-14T13:34:04.435Z,2.60
2022-08-14T13:36:54.819Z,2.85
2022-08-14T13:39:25.610Z,2.50
2022-08-14T13:42:00.412Z,2.67
2022-08-14T13:44:28.672Z,2.35
2022-08-14T13:46:58.554Z,2.80
2022-08-14T13:49:25.619Z,2.60
2022-08-14T13:52:01.401Z,2.58
2022-08-14T13:54:35.215Z,2.53
2022-08-14T13:57:08.787Z,2.78
2022-08-14T13:59:41.701Z,2.35
2022-08-14T14:02:31.739Z,2.47
2022-08-14T14:05:04.550Z,2.72
2022-08-14T14:07:43.513Z,2.60
2022-08-14T14:10:16.041Z,2.88
2022-08-14T14:12:56.151Z,2.80
2022-08-14T14:15:28.650Z,2.22
2022-08-14T14:18:15.221Z,2.53
2022-08-14T14:20:55.507Z,2.95
2022-08-14T14:23:25.287Z,2.17
2022-08-14T14:25:57.191Z,2.75
2022-08-14T14:28:31.795Z,2.78
2022-08-14T14:31:21.336Z,2.47
2022-08-14T14:34:07.561Z,2.20
2022-08-14T14:37:03.784Z,3.38
2022-08-14T14:40:50.521Z,2.78
2022-08-14T14:42:39.534Z,3.08
2022-08-14T14:45:15.733Z,2.80
2022-08-14T14:47:48.630Z,2.60
2022-08-14T14:50:17.165Z,2.53
2022-08-14T14:52:44.441Z,3.00
2022-08-14T14:55:13.468Z,2.40
2022-08-14T14:57:52.119Z,2.25
2022-08-14T15:00:22.280Z,2.20
2022-08-14T15:02:53.513Z,2.20
2022-08-14T15:05:28.310Z,2.40
2022-08-14T15:07:56.021Z,2.15
2022-08-14T15:10:27.439Z,2.15
2022-08-14T15:13:04.173Z,2.50
2022-08-14T15:15:37.365Z,2.30
2022-08-14T15:18:36.302Z,2.60
2022-08-14T15:20:57.359Z,2.50
2022-08-14T15:23:25.564Z,2.47
2022-08-14T15:26:13.452Z,2.25
2022-08-14T15:29:03.088Z,2.50
2022-08-14T15:31:34.829Z,2.28
2022-08-14T15:34:46.051Z,2.80
2022-08-14T15:37:04.499Z,2.20
2022-08-14T15:39:38.521Z,2.33
2022-08-14T15:42:16.266Z,2.83
2022-08-14T15:44:58.062Z,2.80
2022-08-14T15:47:31.834Z,2.10
2022-08-14T15:50:03.844Z,2.25
2022-08-14T15:52:35.099Z,2.30
2022-08-14T15:55:15.482Z,2.30
2022-08-14T15:58:01.980Z,2.47
2022-08-14T16:00:54.533Z,2.55
2022-08-14T16:03:27.729Z,2.53
2022-08-14T16:06:05.669Z,2.20
2022-08-14T16:08:33.211Z,2.40
2022-08-14T16:11:03.614Z,2.95
2022-08-14T16:13:42.936Z,2.90
2022-08-14T16:16:50.903Z,3.88
2022-08-14T16:19:06.270Z,2.40
2022-08-14T16:21:35.776Z,2.65
2022-08-14T16:24:05.585Z,2.83
2022-08-14T16:26:34.808Z,2.05
2022-08-14T16:29:04.967Z,2.30
2022-08-14T16:31:36.628Z,3.25
2022-08-14T16:34:45.452Z,2.58
2022-08-14T16:36:57.054Z,2.20
2022-08-14T16:39:24.947Z,2.65
2022-08-14T16:41:58.350Z,2.55
2022-08-14T16:44:37.908Z,2.55
2022-08-14T16:47:14.102Z,2.67
2022-08-14T16:50:02.985Z,2.85
2022-08-14T16:52:44.362Z,3.25
2022-08-14T16:55:17.890Z,2.90
2022-08-14T16:57:51.816Z,3.17
2022-08-14T17:00:44.149Z,2.75
2022-08-14T17:03:13.298Z,4.25
2022-08-14T17:05:46.664Z,3.10
2022-08-14T17:08:33.502Z,2.60
2022-08-14T17:11:10.682Z,2.97
2022-08-14T17:13:59.384Z,2.78
2022-08-14T17:16:35.785Z,2.60
2022-08-14T17:19:05.526Z,2.83
2022-08-14T17:21:41.765Z,2.78
2022-08-14T17:24:57.933Z,2.70
2022-08-14T17:27:03.970Z,2.83
2022-08-14T17:29:44.602Z,3.10
2022-08-14T17:32:29.949Z,2.67
2022-08-14T17:35:10.091Z,2.53
2022-08-14T17:37:44.807Z,3.03
2022-08-14T17:40:25.779Z,3.25
2022-08-14T17:42:58.995Z,2.88
2022-08-14T17:45:41.449Z,3.05
2022-08-14T17:49:14.753Z,2.95
2022-08-14T17:51:23.954Z,2.55
2022-08-14T17:54:02.608Z,3.17
2022-08-14T17:56:32.986Z,3.25
2022-08-14T17:59:06.197Z,3.20
2022-08-14T18:01:45.903Z,2.97
2022-08-14T18:04:24.951Z,2.55
2022-08-14T18:07:08.913Z,6.30
2022-08-14T18:09:56.899Z,3.13
2022-08-14T18:12:36.339Z,2.72
2022-08-14T18:15:16.060Z,2.72
2022-08-14T18:17:52.809Z,2.85
2022-08-14T18:21:25.722Z,2.85
2022-08-14T18:23:13.610Z,2.70
2022-08-14T18:25:52.259Z,2.80
2022-08-14T18:28:32.162Z,2.88
2022-08-14T18:31:20.308Z,2.88
2022-08-14T18:33:58.479Z,2.47
2022-08-14T18:36:57.736Z,2.70
2022-08-14T18:40:01.209Z,3.50
2022-08-14T18:42:30.365Z,2.88
2022-08-14T18:45:01.268Z,2.80
2022-08-14T18:48:03.309Z,2.78
2022-08-14T18:50:30.978Z,3.30
2022-08-14T18:53:11.012Z,3.05
2022-08-14T18:55:53.418Z,3.10
2022-08-14T18:58:27.742Z,3.10
2022-08-14T19:01:00.645Z,3.65
2022-08-14T19:03:33.616Z,3.50
2022-08-14T19:06:08.103Z,3.28
2022-08-14T19:08:42.224Z,3.45
2022-08-14T19:11:40.510Z,3.35
2022-08-14T19:14:14.648Z,3.35
2022-08-14T19:16:48.387Z,3.58
2022-08-14T19:19:23.985Z,3.22
2022-08-14T19:21:56.698Z,3.83
2022-08-14T19:24:44.286Z,3.70
2022-08-14T19:27:24.041Z,3.35
2022-08-14T19:30:19.702Z,3.58
2022-08-14T19:32:55.923Z,3.35
2022-08-14T19:35:49.645Z,3.13
2022-08-14T19:38:52.188Z,3.35
2022-08-14T19:41:34.629Z,3.28
2022-08-14T19:44:19.037Z,3.30
2022-08-14T19:47:01.860Z,3.38
2022-08-14T19:50:08.098Z,3.58
2022-08-14T19:52:40.248Z,3.05
2022-08-14T19:55:17.575Z,3.50
2022-08-14T19:57:58.360Z,3.42
2022-08-14T20:00:28.983Z,3.88
2022-08-14T20:03:10.549Z,4.37
2022-08-14T20:05:45.617Z,4.20
2022-08-14T20:10:58.426Z,3.87
2022-08-14T20:11:16.025Z,4.10
2022-08-14T20:14:12.484Z,3.80
2022-08-14T20:17:03.200Z,4.40
2022-08-14T20:19:38.070Z,3.77
2022-08-14T20:22:37.329Z,3.50
2022-08-14T20:25:20.444Z,3.53
2022-08-14T20:27:59.568Z,2.97
2022-08-14T20:30:33.644Z,3.70
2022-08-14T20:33:07.980Z,4.10
2022-08-14T20:35:44.450Z,4.40
2022-08-14T20:38:29.181Z,5.03
2022-08-14T20:41:09.660Z,4.13
2022-08-14T20:43:59.770Z,4.33
2022-08-14T20:46:38.382Z,4.63
2022-08-14T20:49:16.033Z,4.30
2022-08-14T20:52:00.246Z,4.03
2022-08-14T20:54:36.293Z,3.93
2022-08-14T20:57:18.825Z,4.83
2022-08-14T20:59:53.171Z,4.40
2022-08-14T21:02:50.330Z,5.40
2022-08-14T21:05:33.453Z,5.63
2022-08-14T21:08:09.712Z,5.27
2022-08-14T21:10:54.927Z,4.57
2022-08-14T21:14:18.708Z,4.27
2022-08-14T21:16:34.549Z,4.37
2022-08-14T21:19:03.963Z,5.07
2022-08-14T21:21:41.732Z,5.30
2022-08-14T21:24:38.904Z,6.50
2022-08-14T21:27:12.301Z,5.60
2022-08-14T21:29:49.750Z,5.33
2022-08-14T21:32:33.831Z,4.73
2022-08-14T21:35:07.928Z,4.67
2022-08-14T21:37:46.101Z,6.50
2022-08-14T21:40:41.733Z,4.80
2022-08-14T21:43:07.317Z,5.30
2022-08-14T21:45:53.206Z,5.07
2022-08-14T21:48:32.037Z,4.53
2022-08-14T21:51:52.763Z,3.80
2022-08-14T21:53:59.898Z,4.57
2022-08-14T21:56:56.662Z,4.63
2022-08-14T21:59:30.590Z,4.53
2022-08-14T22:02:03.696Z,4.40
2022-08-14T22:04:40.547Z,5.57
2022-08-14T22:07:17.165Z,4.53
2022-08-14T22:09:54.740Z,3.83
2022-08-14T22:12:45.248Z,5.07
2022-08-14T22:15:14.855Z,5.30
2022-08-14T22:17:44.232Z,4.70
2022-08-14T22:20:16.215Z,5.80
2022-08-14T22:22:45.572Z,6.27
2022-08-14T22:25:17.388Z,4.77
2022-08-14T22:27:56.320Z,4.73
2022-08-14T22:30:25.440Z,4.13
2022-08-14T22:32:56.602Z,4.10
2022-08-14T22:35:26.547Z,4.33
2022-08-14T22:38:36.242Z,3.83
2022-08-14T22:41:04.554Z,4.53
2022-08-14T22:43:35.133Z,4.73
2022-08-14T22:46:06.239Z,6.27
2022-08-14T22:48:45.267Z,6.83
2022-08-14T22:51:17.692Z,8.30
2022-08-14T22:53:48.426Z,7.43
2022-08-14T22:56:20.727Z,6.23
2022-08-14T22:58:54.050Z,5.53
2022-08-14T23:01:56.788Z,5.47
2022-08-14T23:04:34.151Z,5.53
2022-08-14T23:07:07.462Z,4.33
2022-08-14T23:09:56.189Z,5.53
2022-08-14T23:12:31.792Z,6.10
2022-08-14T23:15:02.098Z,5.93
2022-08-14T23:17:38.598Z,5.33
2022-08-14T23:20:19.099Z,5.07
2022-08-14T23:22:51.729Z,5.03
2022-08-14T23:25:57.179Z,7.50
2022-08-14T23:28:34.675Z,7.57
2022-08-14T23:31:05.657Z,6.93
2022-08-14T23:33:34.823Z,7.70
2022-08-14T23:36:28.526Z,6.97
2022-08-14T23:38:53.894Z,7.33
2022-08-14T23:41:21.837Z,7.13
2022-08-14T23:43:54.595Z,6.20
2022-08-14T23:46:23.969Z,5.00
2022-08-14T23:49:04.048Z,7.00
2022-08-14T23:51:36.381Z,6.40
2022-08-14T23:54:05.910Z,5.97
2022-08-14T23:57:00.184Z,6.13
2022-08-14T23:59:31.697Z,5.17
